sensor_id;sensor_type;location;lat;lon;timestamp;P1;durP1;ratioP1;P2;durP2;ratioP2
76393;SDS011;65216;51.090;-115.352;2022-12-17T00:00:51;10.10;;;1.60;;
76393;SDS011;65216;51.090;-115.352;2022-12-17T00:03:36;11.60;;;1.90;;
76393;SDS011;65216;51.090;-115.352;2022-12-17T00:06:25;14.60;;;1.60;;
76393;SDS011;65216;51.090;-115.352;2022-12-17T00:09:10;16.30;;;1.90;;
76393;SDS011;65216;51.090;-115.352;2022-12-17T00:12:02;12.70;;;1.70;;
76393;SDS011;65216;51.090;-115.352;2022-12-17T00:14:47;13.40;;;1.70;;
76393;SDS011;65216;51.090;-115.352;2022-12-17T00:17:33;18.80;;;1.70;;
76393;SDS011;65216;51.090;-115.352;2022-12-17T00:20:18;17.50;;;2.10;;
76393;SDS011;65216;51.090;-115.352;2022-12-17T00:23:04;11.30;;;1.70;;
76393;SDS011;65216;51.090;-115.352;2022-12-17T00:25:54;16.30;;;1.60;;
76393;SDS011;65216;51.090;-115.352;2022-12-17T00:31:27;16.90;;;2.00;;
76393;SDS011;65216;51.090;-115.352;2022-12-17T00:34:13;17.70;;;1.90;;
76393;SDS011;65216;51.090;-115.352;2022-12-17T00:36:59;9.90;;;1.70;;
76393;SDS011;65216;51.090;-115.352;2022-12-17T00:39:45;15.50;;;2.10;;
76393;SDS011;65216;51.090;-115.352;2022-12-17T00:42:31;18.90;;;2.20;;
76393;SDS011;65216;51.090;-115.352;2022-12-17T00:45:19;15.00;;;1.70;;
76393;SDS011;65216;51.090;-115.352;2022-12-17T00:48:07;8.20;;;1.80;;
76393;SDS011;65216;51.090;-115.352;2022-12-17T00:50:54;12.00;;;1.90;;
76393;SDS011;65216;51.090;-115.352;2022-12-17T00:53:39;14.10;;;2.00;;
76393;SDS011;65216;51.090;-115.352;2022-12-17T00:56:25;13.20;;;1.60;;
76393;SDS011;65216;51.090;-115.352;2022-12-17T00:59:12;17.80;;;2.00;;
76393;SDS011;65216;51.090;-115.352;2022-12-17T01:01:57;14.60;;;1.70;;
76393;SDS011;65216;51.090;-115.352;2022-12-17T01:04:46;18.00;;;1.70;;
76393;SDS011;65216;51.090;-115.352;2022-12-17T01:07:31;17.90;;;1.60;;
76393;SDS011;65216;51.090;-115.352;2022-12-17T01:10:19;14.50;;;1.80;;
76393;SDS011;65216;51.090;-115.352;2022-12-17T01:13:05;23.80;;;2.10;;
76393;SDS011;65216;51.090;-115.352;2022-12-17T01:16:03;20.00;;;2.00;;
76393;SDS011;65216;51.090;-115.352;2022-12-17T01:18:51;14.50;;;1.50;;
76393;SDS011;65216;51.090;-115.352;2022-12-17T01:21:38;21.50;;;2.30;;
76393;SDS011;65216;51.090;-115.352;2022-12-17T01:24:29;16.10;;;2.20;;
76393;SDS011;65216;51.090;-115.352;2022-12-17T01:27:15;19.70;;;1.80;;
76393;SDS011;65216;51.090;-115.352;2022-12-17T01:30:06;21.30;;;1.90;;
76393;SDS011;65216;51.090;-115.352;2022-12-17T01:32:52;15.80;;;2.10;;
76393;SDS011;65216;51.090;-115.352;2022-12-17T01:35:47;21.40;;;2.30;;
76393;SDS011;65216;51.090;-115.352;2022-12-17T01:38:33;16.50;;;2.10;;
76393;SDS011;65216;51.090;-115.352;2022-12-17T01:41:19;13.00;;;2.00;;
76393;SDS011;65216;51.090;-115.352;2022-12-17T01:44:43;14.50;;;1.60;;
76393;SDS011;65216;51.090;-115.352;2022-12-17T01:50:48;13.10;;;1.70;;
76393;SDS011;65216;51.090;-115.352;2022-12-17T01:53:49;20.10;;;2.30;;
76393;SDS011;65216;51.090;-115.352;2022-12-17T01:56:38;11.10;;;1.70;;
76393;SDS011;65216;51.090;-115.352;2022-12-17T01:59:42;18.20;;;2.10;;
76393;SDS011;65216;51.090;-115.352;2022-12-17T02:02:36;19.80;;;1.80;;
76393;SDS011;65216;51.090;-115.352;2022-12-17T02:05:27;17.00;;;2.10;;
76393;SDS011;65216;51.090;-115.352;2022-12-17T02:11:36;21.50;;;2.00;;
76393;SDS011;65216;51.090;-115.352;2022-12-17T02:18:20;15.00;;;2.10;;
76393;SDS011;65216;51.090;-115.352;2022-12-17T02:21:10;15.60;;;2.10;;
76393;SDS011;65216;51.090;-115.352;2022-12-17T02:27:03;20.90;;;2.10;;
76393;SDS011;65216;51.090;-115.352;2022-12-17T02:29:57;17.20;;;2.00;;
76393;SDS011;65216;51.090;-115.352;2022-12-17T02:32:50;18.60;;;2.20;;
76393;SDS011;65216;51.090;-115.352;2022-12-17T02:35:41;14.80;;;2.30;;
76393;SDS011;65216;51.090;-115.352;2022-12-17T02:38:31;21.20;;;2.20;;
76393;SDS011;65216;51.090;-115.352;2022-12-17T02:41:27;17.10;;;2.40;;
76393;SDS011;65216;51.090;-115.352;2022-12-17T02:44:16;17.10;;;1.90;;
76393;SDS011;65216;51.090;-115.352;2022-12-17T02:47:06;13.40;;;1.60;;
76393;SDS011;65216;51.090;-115.352;2022-12-17T02:49:53;17.10;;;2.30;;
76393;SDS011;65216;51.090;-115.352;2022-12-17T02:52:41;14.40;;;1.70;;
76393;SDS011;65216;51.090;-115.352;2022-12-17T02:55:30;12.70;;;2.00;;
76393;SDS011;65216;51.090;-115.352;2022-12-17T02:58:16;14.70;;;1.60;;
76393;SDS011;65216;51.090;-115.352;2022-12-17T03:01:02;18.50;;;1.70;;
76393;SDS011;65216;51.090;-115.352;2022-12-17T03:03:48;19.40;;;1.90;;
76393;SDS011;65216;51.090;-115.352;2022-12-17T03:06:36;18.90;;;2.60;;
76393;SDS011;65216;51.090;-115.352;2022-12-17T03:09:24;17.10;;;1.80;;
76393;SDS011;65216;51.090;-115.352;2022-12-17T03:12:09;23.50;;;2.10;;
76393;SDS011;65216;51.090;-115.352;2022-12-17T03:14:55;18.70;;;2.40;;
76393;SDS011;65216;51.090;-115.352;2022-12-17T03:17:41;15.30;;;1.90;;
76393;SDS011;65216;51.090;-115.352;2022-12-17T03:20:26;21.30;;;2.40;;
76393;SDS011;65216;51.090;-115.352;2022-12-17T03:23:12;15.90;;;2.00;;
76393;SDS011;65216;51.090;-115.352;2022-12-17T03:26:01;16.10;;;2.10;;
76393;SDS011;65216;51.090;-115.352;2022-12-17T03:28:47;16.10;;;1.90;;
76393;SDS011;65216;51.090;-115.352;2022-12-17T03:31:33;16.60;;;1.90;;
76393;SDS011;65216;51.090;-115.352;2022-12-17T03:34:19;15.30;;;2.00;;
76393;SDS011;65216;51.090;-115.352;2022-12-17T03:37:06;17.10;;;2.10;;
76393;SDS011;65216;51.090;-115.352;2022-12-17T03:39:51;9.90;;;1.70;;
76393;SDS011;65216;51.090;-115.352;2022-12-17T03:42:37;13.40;;;1.70;;
76393;SDS011;65216;51.090;-115.352;2022-12-17T03:45:22;12.90;;;1.70;;
76393;SDS011;65216;51.090;-115.352;2022-12-17T03:48:10;11.30;;;1.70;;
76393;SDS011;65216;51.090;-115.352;2022-12-17T03:51:01;7.10;;;1.40;;
76393;SDS011;65216;51.090;-115.352;2022-12-17T03:53:49;10.60;;;1.50;;
76393;SDS011;65216;51.090;-115.352;2022-12-17T03:56:34;13.40;;;1.60;;
76393;SDS011;65216;51.090;-115.352;2022-12-17T03:59:20;12.00;;;1.50;;
76393;SDS011;65216;51.090;-115.352;2022-12-17T04:02:06;15.30;;;2.00;;
76393;SDS011;65216;51.090;-115.352;2022-12-17T04:04:51;19.20;;;1.90;;
76393;SDS011;65216;51.090;-115.352;2022-12-17T04:07:37;11.00;;;1.40;;
76393;SDS011;65216;51.090;-115.352;2022-12-17T04:10:36;12.70;;;1.40;;
76393;SDS011;65216;51.090;-115.352;2022-12-17T04:13:21;15.40;;;1.50;;
76393;SDS011;65216;51.090;-115.352;2022-12-17T04:16:07;12.10;;;1.60;;
76393;SDS011;65216;51.090;-115.352;2022-12-17T04:18:53;8.20;;;1.40;;
76393;SDS011;65216;51.090;-115.352;2022-12-17T04:21:39;12.10;;;1.60;;
76393;SDS011;65216;51.090;-115.352;2022-12-17T04:24:24;9.10;;;1.30;;
76393;SDS011;65216;51.090;-115.352;2022-12-17T04:27:10;15.10;;;1.40;;
76393;SDS011;65216;51.090;-115.352;2022-12-17T04:29:55;13.30;;;1.60;;
76393;SDS011;65216;51.090;-115.352;2022-12-17T04:32:41;9.90;;;1.40;;
76393;SDS011;65216;51.090;-115.352;2022-12-17T04:35:26;14.80;;;1.30;;
76393;SDS011;65216;51.090;-115.352;2022-12-17T04:38:12;9.00;;;1.10;;
76393;SDS011;65216;51.090;-115.352;2022-12-17T04:40:58;5.70;;;1.30;;
76393;SDS011;65216;51.090;-115.352;2022-12-17T04:43:46;21.10;;;1.90;;
76393;SDS011;65216;51.090;-115.352;2022-12-17T04:46:32;16.20;;;1.70;;
76393;SDS011;65216;51.090;-115.352;2022-12-17T04:49:18;8.30;;;1.20;;
76393;SDS011;65216;51.090;-115.352;2022-12-17T04:52:03;12.30;;;1.40;;
76393;SDS011;65216;51.090;-115.352;2022-12-17T04:54:49;9.10;;;1.50;;
76393;SDS011;65216;51.090;-115.352;2022-12-17T04:57:35;7.70;;;1.40;;
76393;SDS011;65216;51.090;-115.352;2022-12-17T05:00:21;9.20;;;1.00;;
76393;SDS011;65216;51.090;-115.352;2022-12-17T05:03:14;10.80;;;1.30;;
76393;SDS011;65216;51.090;-115.352;2022-12-17T05:06:00;8.70;;;1.10;;
76393;SDS011;65216;51.090;-115.352;2022-12-17T05:08:46;4.30;;;1.10;;
76393;SDS011;65216;51.090;-115.352;2022-12-17T05:11:32;5.50;;;0.90;;
76393;SDS011;65216;51.090;-115.352;2022-12-17T05:14:17;2.50;;;0.90;;
76393;SDS011;65216;51.090;-115.352;2022-12-17T05:17:03;6.50;;;1.20;;
76393;SDS011;65216;51.090;-115.352;2022-12-17T05:19:50;3.50;;;0.90;;
76393;SDS011;65216;51.090;-115.352;2022-12-17T05:22:35;2.30;;;0.60;;
76393;SDS011;65216;51.090;-115.352;2022-12-17T05:25:21;4.10;;;0.80;;
76393;SDS011;65216;51.090;-115.352;2022-12-17T05:28:06;4.00;;;0.80;;
76393;SDS011;65216;51.090;-115.352;2022-12-17T05:30:55;2.20;;;0.70;;
76393;SDS011;65216;51.090;-115.352;2022-12-17T05:33:41;2.40;;;0.70;;
76393;SDS011;65216;51.090;-115.352;2022-12-17T05:36:27;3.30;;;0.70;;
76393;SDS011;65216;51.090;-115.352;2022-12-17T05:39:26;1.90;;;0.60;;
76393;SDS011;65216;51.090;-115.352;2022-12-17T05:42:11;2.50;;;0.70;;
76393;SDS011;65216;51.090;-115.352;2022-12-17T05:44:57;2.40;;;0.70;;
76393;SDS011;65216;51.090;-115.352;2022-12-17T05:47:42;3.50;;;0.70;;
76393;SDS011;65216;51.090;-115.352;2022-12-17T05:50:28;2.10;;;0.70;;
76393;SDS011;65216;51.090;-115.352;2022-12-17T05:53:16;2.20;;;0.70;;
76393;SDS011;65216;51.090;-115.352;2022-12-17T05:56:02;0.90;;;0.50;;
76393;SDS011;65216;51.090;-115.352;2022-12-17T05:58:47;3.20;;;0.80;;
76393;SDS011;65216;51.090;-115.352;2022-12-17T06:01:33;1.70;;;0.50;;
76393;SDS011;65216;51.090;-115.352;2022-12-17T06:04:19;1.70;;;0.60;;
76393;SDS011;65216;51.090;-115.352;2022-12-17T06:07:04;3.50;;;0.60;;
76393;SDS011;65216;51.090;-115.352;2022-12-17T06:09:50;2.30;;;0.70;;
76393;SDS011;65216;51.090;-115.352;2022-12-17T06:12:36;1.70;;;0.60;;
76393;SDS011;65216;51.090;-115.352;2022-12-17T06:15:21;1.30;;;0.50;;
76393;SDS011;65216;51.090;-115.352;2022-12-17T06:18:07;1.60;;;0.80;;
76393;SDS011;65216;51.090;-115.352;2022-12-17T06:20:53;1.80;;;0.50;;
76393;SDS011;65216;51.090;-115.352;2022-12-17T06:23:39;1.60;;;0.70;;
76393;SDS011;65216;51.090;-115.352;2022-12-17T06:26:24;2.10;;;0.60;;
76393;SDS011;65216;51.090;-115.352;2022-12-17T06:29:10;2.00;;;0.60;;
76393;SDS011;65216;51.090;-115.352;2022-12-17T06:31:56;1.60;;;0.60;;
76393;SDS011;65216;51.090;-115.352;2022-12-17T06:34:41;1.20;;;0.50;;
76393;SDS011;65216;51.090;-115.352;2022-12-17T06:37:27;2.40;;;0.70;;
76393;SDS011;65216;51.090;-115.352;2022-12-17T06:40:14;1.90;;;0.60;;
76393;SDS011;65216;51.090;-115.352;2022-12-17T06:43:00;2.20;;;0.60;;
76393;SDS011;65216;51.090;-115.352;2022-12-17T06:45:45;1.00;;;0.60;;
76393;SDS011;65216;51.090;-115.352;2022-12-17T06:48:31;2.20;;;0.50;;
76393;SDS011;65216;51.090;-115.352;2022-12-17T06:51:16;0.90;;;0.50;;
76393;SDS011;65216;51.090;-115.352;2022-12-17T06:54:04;1.20;;;0.70;;
76393;SDS011;65216;51.090;-115.352;2022-12-17T06:56:53;2.10;;;0.60;;
76393;SDS011;65216;51.090;-115.352;2022-12-17T06:59:41;1.70;;;0.50;;
76393;SDS011;65216;51.090;-115.352;2022-12-17T07:02:26;1.70;;;0.70;;
76393;SDS011;65216;51.090;-115.352;2022-12-17T07:05:12;3.40;;;0.60;;
76393;SDS011;65216;51.090;-115.352;2022-12-17T07:07:59;1.40;;;0.60;;
76393;SDS011;65216;51.090;-115.352;2022-12-17T07:10:47;2.50;;;0.60;;
76393;SDS011;65216;51.090;-115.352;2022-12-17T07:13:33;1.00;;;0.50;;
76393;SDS011;65216;51.090;-115.352;2022-12-17T07:16:18;1.10;;;0.60;;
76393;SDS011;65216;51.090;-115.352;2022-12-17T07:19:15;1.10;;;0.60;;
76393;SDS011;65216;51.090;-115.352;2022-12-17T07:22:00;1.40;;;0.60;;
76393;SDS011;65216;51.090;-115.352;2022-12-17T07:24:46;2.50;;;0.70;;
76393;SDS011;65216;51.090;-115.352;2022-12-17T07:27:32;0.60;;;0.40;;
76393;SDS011;65216;51.090;-115.352;2022-12-17T07:30:17;0.70;;;0.40;;
76393;SDS011;65216;51.090;-115.352;2022-12-17T07:33:05;1.10;;;0.60;;
76393;SDS011;65216;51.090;-115.352;2022-12-17T07:35:55;1.20;;;0.50;;
76393;SDS011;65216;51.090;-115.352;2022-12-17T07:38:41;0.80;;;0.40;;
76393;SDS011;65216;51.090;-115.352;2022-12-17T07:41:26;1.90;;;0.60;;
76393;SDS011;65216;51.090;-115.352;2022-12-17T07:44:12;1.10;;;0.40;;
76393;SDS011;65216;51.090;-115.352;2022-12-17T07:46:58;1.30;;;0.40;;
76393;SDS011;65216;51.090;-115.352;2022-12-17T07:49:43;1.40;;;0.50;;
76393;SDS011;65216;51.090;-115.352;2022-12-17T07:52:29;1.40;;;0.50;;
76393;SDS011;65216;51.090;-115.352;2022-12-17T07:55:15;0.80;;;0.50;;
76393;SDS011;65216;51.090;-115.352;2022-12-17T07:58:03;1.20;;;0.60;;
76393;SDS011;65216;51.090;-115.352;2022-12-17T08:00:49;0.80;;;0.50;;
76393;SDS011;65216;51.090;-115.352;2022-12-17T08:03:35;0.80;;;0.50;;
76393;SDS011;65216;51.090;-115.352;2022-12-17T08:06:20;1.70;;;0.60;;
76393;SDS011;65216;51.090;-115.352;2022-12-17T08:09:06;2.10;;;0.60;;
76393;SDS011;65216;51.090;-115.352;2022-12-17T08:11:52;1.10;;;0.60;;
76393;SDS011;65216;51.090;-115.352;2022-12-17T08:14:40;1.40;;;0.50;;
76393;SDS011;65216;51.090;-115.352;2022-12-17T08:17:25;1.10;;;0.60;;
76393;SDS011;65216;51.090;-115.352;2022-12-17T08:20:11;1.40;;;0.50;;
76393;SDS011;65216;51.090;-115.352;2022-12-17T08:23:04;1.10;;;0.60;;
76393;SDS011;65216;51.090;-115.352;2022-12-17T08:25:50;1.00;;;0.50;;
76393;SDS011;65216;51.090;-115.352;2022-12-17T08:28:35;0.50;;;0.30;;
76393;SDS011;65216;51.090;-115.352;2022-12-17T08:31:23;0.60;;;0.40;;
76393;SDS011;65216;51.090;-115.352;2022-12-17T08:34:09;0.50;;;0.50;;
76393;SDS011;65216;51.090;-115.352;2022-12-17T08:36:54;1.20;;;0.50;;
76393;SDS011;65216;51.090;-115.352;2022-12-17T08:39:40;1.10;;;0.50;;
76393;SDS011;65216;51.090;-115.352;2022-12-17T08:42:25;1.60;;;0.70;;
76393;SDS011;65216;51.090;-115.352;2022-12-17T08:45:11;0.90;;;0.40;;
76393;SDS011;65216;51.090;-115.352;2022-12-17T08:48:07;1.10;;;0.50;;
76393;SDS011;65216;51.090;-115.352;2022-12-17T08:50:53;0.80;;;0.40;;
76393;SDS011;65216;51.090;-115.352;2022-12-17T08:53:38;1.20;;;0.50;;
76393;SDS011;65216;51.090;-115.352;2022-12-17T08:56:24;0.80;;;0.40;;
76393;SDS011;65216;51.090;-115.352;2022-12-17T08:59:09;0.70;;;0.40;;
76393;SDS011;65216;51.090;-115.352;2022-12-17T09:01:55;6.70;;;0.80;;
76393;SDS011;65216;51.090;-115.352;2022-12-17T09:04:41;4.10;;;0.70;;
76393;SDS011;65216;51.090;-115.352;2022-12-17T09:07:26;7.40;;;1.30;;
76393;SDS011;65216;51.090;-115.352;2022-12-17T09:10:12;16.40;;;2.10;;
76393;SDS011;65216;51.090;-115.352;2022-12-17T09:13:01;32.30;;;4.90;;
76393;SDS011;65216;51.090;-115.352;2022-12-17T09:15:54;56.40;;;8.60;;
76393;SDS011;65216;51.090;-115.352;2022-12-17T09:18:40;88.30;;;13.20;;
76393;SDS011;65216;51.090;-115.352;2022-12-17T09:21:32;70.30;;;10.90;;
76393;SDS011;65216;51.090;-115.352;2022-12-17T09:24:18;33.00;;;5.30;;
76393;SDS011;65216;51.090;-115.352;2022-12-17T09:27:03;40.40;;;7.00;;
76393;SDS011;65216;51.090;-115.352;2022-12-17T09:29:49;31.70;;;6.60;;
76393;SDS011;65216;51.090;-115.352;2022-12-17T09:32:35;24.70;;;3.80;;
76393;SDS011;65216;51.090;-115.352;2022-12-17T09:35:20;17.60;;;3.30;;
76393;SDS011;65216;51.090;-115.352;2022-12-17T09:38:07;22.20;;;4.10;;
76393;SDS011;65216;51.090;-115.352;2022-12-17T09:40:59;22.50;;;3.70;;
76393;SDS011;65216;51.090;-115.352;2022-12-17T09:44:00;17.30;;;3.00;;
76393;SDS011;65216;51.090;-115.352;2022-12-17T09:49:51;12.60;;;2.80;;
76393;SDS011;65216;51.090;-115.352;2022-12-17T09:52:41;14.40;;;2.70;;
76393;SDS011;65216;51.090;-115.352;2022-12-17T09:55:31;10.70;;;2.20;;
76393;SDS011;65216;51.090;-115.352;2022-12-17T09:58:25;7.60;;;1.80;;
76393;SDS011;65216;51.090;-115.352;2022-12-17T10:01:20;9.20;;;1.80;;
76393;SDS011;65216;51.090;-115.352;2022-12-17T10:04:38;9.70;;;1.90;;
76393;SDS011;65216;51.090;-115.352;2022-12-17T10:07:34;9.10;;;1.90;;
76393;SDS011;65216;51.090;-115.352;2022-12-17T10:10:23;7.90;;;2.00;;
76393;SDS011;65216;51.090;-115.352;2022-12-17T10:15:59;5.30;;;1.20;;
76393;SDS011;65216;51.090;-115.352;2022-12-17T10:19:16;4.50;;;1.30;;
76393;SDS011;65216;51.090;-115.352;2022-12-17T10:22:17;5.10;;;1.30;;
76393;SDS011;65216;51.090;-115.352;2022-12-17T10:25:15;7.10;;;1.10;;
76393;SDS011;65216;51.090;-115.352;2022-12-17T10:28:11;3.50;;;1.10;;
76393;SDS011;65216;51.090;-115.352;2022-12-17T10:31:00;4.10;;;1.00;;
76393;SDS011;65216;51.090;-115.352;2022-12-17T10:33:55;4.00;;;1.20;;
76393;SDS011;65216;51.090;-115.352;2022-12-17T10:36:46;4.20;;;1.00;;
76393;SDS011;65216;51.090;-115.352;2022-12-17T10:39:35;2.90;;;0.90;;
76393;SDS011;65216;51.090;-115.352;2022-12-17T10:42:27;4.20;;;0.90;;
76393;SDS011;65216;51.090;-115.352;2022-12-17T10:45:27;2.30;;;1.00;;
76393;SDS011;65216;51.090;-115.352;2022-12-17T10:48:30;4.70;;;1.20;;
76393;SDS011;65216;51.090;-115.352;2022-12-17T10:51:33;4.20;;;1.20;;
76393;SDS011;65216;51.090;-115.352;2022-12-17T10:54:28;3.50;;;0.90;;
76393;SDS011;65216;51.090;-115.352;2022-12-17T10:57:37;1.80;;;0.80;;
76393;SDS011;65216;51.090;-115.352;2022-12-17T11:00:32;2.40;;;0.80;;
76393;SDS011;65216;51.090;-115.352;2022-12-17T11:03:26;2.20;;;0.80;;
76393;SDS011;65216;51.090;-115.352;2022-12-17T11:06:31;4.90;;;1.20;;
76393;SDS011;65216;51.090;-115.352;2022-12-17T11:09:41;2.30;;;0.90;;
76393;SDS011;65216;51.090;-115.352;2022-12-17T11:12:57;2.30;;;0.90;;
76393;SDS011;65216;51.090;-115.352;2022-12-17T11:16:15;2.60;;;0.90;;
76393;SDS011;65216;51.090;-115.352;2022-12-17T11:22:02;2.60;;;1.10;;
76393;SDS011;65216;51.090;-115.352;2022-12-17T11:25:12;2.70;;;0.90;;
76393;SDS011;65216;51.090;-115.352;2022-12-17T11:28:22;2.20;;;0.90;;
76393;SDS011;65216;51.090;-115.352;2022-12-17T11:34:46;2.50;;;0.90;;
76393;SDS011;65216;51.090;-115.352;2022-12-17T11:37:51;1.80;;;0.70;;
76393;SDS011;65216;51.090;-115.352;2022-12-17T11:48:05;3.70;;;0.80;;
76393;SDS011;65216;51.090;-115.352;2022-12-17T11:51:17;3.10;;;0.90;;
76393;SDS011;65216;51.090;-115.352;2022-12-17T11:58:02;2.00;;;0.70;;
76393;SDS011;65216;51.090;-115.352;2022-12-17T12:01:05;1.80;;;0.70;;
76393;SDS011;65216;51.090;-115.352;2022-12-17T12:07:52;2.20;;;1.00;;
76393;SDS011;65216;51.090;-115.352;2022-12-17T12:32:19;3.40;;;1.00;;
76393;SDS011;65216;51.090;-115.352;2022-12-17T12:35:22;2.90;;;0.90;;
76393;SDS011;65216;51.090;-115.352;2022-12-17T12:38:23;2.20;;;1.00;;
76393;SDS011;65216;51.090;-115.352;2022-12-17T12:51:23;1.70;;;0.80;;
76393;SDS011;65216;51.090;-115.352;2022-12-17T12:54:27;1.60;;;0.80;;
76393;SDS011;65216;51.090;-115.352;2022-12-17T13:00:50;2.10;;;1.10;;
76393;SDS011;65216;51.090;-115.352;2022-12-17T13:06:51;1.70;;;0.90;;
76393;SDS011;65216;51.090;-115.352;2022-12-17T13:09:32;2.20;;;0.90;;
76393;SDS011;65216;51.090;-115.352;2022-12-17T13:14:44;1.70;;;0.80;;
76393;SDS011;65216;51.090;-115.352;2022-12-17T13:25:40;1.50;;;0.90;;
76393;SDS011;65216;51.090;-115.352;2022-12-17T13:28:47;1.60;;;0.90;;
76393;SDS011;65216;51.090;-115.352;2022-12-17T13:31:44;1.40;;;0.80;;
76393;SDS011;65216;51.090;-115.352;2022-12-17T13:43:23;1.30;;;0.80;;
76393;SDS011;65216;51.090;-115.352;2022-12-17T13:45:56;1.40;;;0.70;;
76393;SDS011;65216;51.090;-115.352;2022-12-17T13:48:26;1.60;;;0.80;;
76393;SDS011;65216;51.090;-115.352;2022-12-17T13:51:03;1.80;;;0.90;;
76393;SDS011;65216;51.090;-115.352;2022-12-17T13:53:31;2.00;;;0.80;;
76393;SDS011;65216;51.090;-115.352;2022-12-17T13:56:00;1.50;;;0.80;;
76393;SDS011;65216;51.090;-115.352;2022-12-17T13:58:30;1.50;;;0.90;;
76393;SDS011;65216;51.090;-115.352;2022-12-17T14:01:08;1.10;;;0.70;;
76393;SDS011;65216;51.090;-115.352;2022-12-17T14:03:47;2.00;;;0.80;;
76393;SDS011;65216;51.090;-115.352;2022-12-17T14:06:19;1.40;;;0.90;;
76393;SDS011;65216;51.090;-115.352;2022-12-17T14:08:49;1.60;;;0.80;;
76393;SDS011;65216;51.090;-115.352;2022-12-17T14:11:19;1.10;;;0.70;;
76393;SDS011;65216;51.090;-115.352;2022-12-17T14:16:59;1.80;;;0.80;;
76393;SDS011;65216;51.090;-115.352;2022-12-17T14:19:27;1.40;;;1.00;;
76393;SDS011;65216;51.090;-115.352;2022-12-17T14:21:56;1.60;;;0.60;;
76393;SDS011;65216;51.090;-115.352;2022-12-17T14:24:30;1.30;;;0.60;;
76393;SDS011;65216;51.090;-115.352;2022-12-17T14:26:59;0.80;;;0.50;;
76393;SDS011;65216;51.090;-115.352;2022-12-17T14:29:29;1.50;;;0.70;;
76393;SDS011;65216;51.090;-115.352;2022-12-17T14:31:59;1.00;;;0.60;;
76393;SDS011;65216;51.090;-115.352;2022-12-17T14:34:40;0.90;;;0.60;;
76393;SDS011;65216;51.090;-115.352;2022-12-17T14:37:16;0.90;;;0.60;;
76393;SDS011;65216;51.090;-115.352;2022-12-17T14:39:47;1.20;;;0.70;;
76393;SDS011;65216;51.090;-115.352;2022-12-17T14:42:17;1.00;;;0.40;;
76393;SDS011;65216;51.090;-115.352;2022-12-17T14:47:57;0.80;;;0.50;;
76393;SDS011;65216;51.090;-115.352;2022-12-17T14:50:34;0.50;;;0.50;;
76393;SDS011;65216;51.090;-115.352;2022-12-17T14:53:26;1.70;;;0.50;;
76393;SDS011;65216;51.090;-115.352;2022-12-17T14:55:57;1.10;;;0.60;;
76393;SDS011;65216;51.090;-115.352;2022-12-17T14:58:26;1.30;;;0.70;;
76393;SDS011;65216;51.090;-115.352;2022-12-17T15:01:09;2.20;;;0.80;;
76393;SDS011;65216;51.090;-115.352;2022-12-17T15:03:43;2.00;;;0.60;;
76393;SDS011;65216;51.090;-115.352;2022-12-17T15:06:17;1.80;;;0.70;;
76393;SDS011;65216;51.090;-115.352;2022-12-17T15:08:46;1.10;;;0.70;;
76393;SDS011;65216;51.090;-115.352;2022-12-17T15:11:17;1.30;;;0.60;;
76393;SDS011;65216;51.090;-115.352;2022-12-17T15:13:49;2.50;;;0.80;;
76393;SDS011;65216;51.090;-115.352;2022-12-17T15:16:17;1.10;;;0.50;;
76393;SDS011;65216;51.090;-115.352;2022-12-17T15:18:44;1.50;;;0.60;;
76393;SDS011;65216;51.090;-115.352;2022-12-17T15:21:16;1.40;;;0.50;;
76393;SDS011;65216;51.090;-115.352;2022-12-17T15:23:44;1.30;;;0.60;;
76393;SDS011;65216;51.090;-115.352;2022-12-17T15:26:15;2.00;;;0.60;;
76393;SDS011;65216;51.090;-115.352;2022-12-17T15:28:43;1.70;;;0.90;;
76393;SDS011;65216;51.090;-115.352;2022-12-17T15:31:16;1.00;;;0.50;;
76393;SDS011;65216;51.090;-115.352;2022-12-17T15:33:44;1.30;;;0.60;;
76393;SDS011;65216;51.090;-115.352;2022-12-17T15:36:14;1.90;;;0.60;;
76393;SDS011;65216;51.090;-115.352;2022-12-17T15:38:41;1.90;;;0.70;;
76393;SDS011;65216;51.090;-115.352;2022-12-17T15:41:09;1.00;;;0.50;;
76393;SDS011;65216;51.090;-115.352;2022-12-17T15:43:55;1.60;;;0.60;;
76393;SDS011;65216;51.090;-115.352;2022-12-17T15:46:25;1.50;;;0.50;;
76393;SDS011;65216;51.090;-115.352;2022-12-17T15:48:56;1.40;;;0.60;;
76393;SDS011;65216;51.090;-115.352;2022-12-17T15:51:29;1.80;;;0.60;;
76393;SDS011;65216;51.090;-115.352;2022-12-17T15:53:59;2.10;;;0.80;;
76393;SDS011;65216;51.090;-115.352;2022-12-17T15:56:27;1.90;;;0.80;;
76393;SDS011;65216;51.090;-115.352;2022-12-17T15:58:59;2.50;;;0.50;;
76393;SDS011;65216;51.090;-115.352;2022-12-17T16:01:27;3.00;;;0.60;;
76393;SDS011;65216;51.090;-115.352;2022-12-17T16:03:54;2.00;;;0.70;;
76393;SDS011;65216;51.090;-115.352;2022-12-17T16:06:23;2.00;;;0.70;;
76393;SDS011;65216;51.090;-115.352;2022-12-17T16:08:50;2.90;;;0.60;;
76393;SDS011;65216;51.090;-115.352;2022-12-17T16:11:18;2.40;;;0.50;;
76393;SDS011;65216;51.090;-115.352;2022-12-17T16:13:45;3.30;;;0.70;;
76393;SDS011;65216;51.090;-115.352;2022-12-17T16:16:13;6.00;;;0.90;;
76393;SDS011;65216;51.090;-115.352;2022-12-17T16:18:46;4.30;;;0.90;;
76393;SDS011;65216;51.090;-115.352;2022-12-17T16:21:16;8.60;;;1.00;;
76393;SDS011;65216;51.090;-115.352;2022-12-17T16:23:45;7.80;;;1.10;;
76393;SDS011;65216;51.090;-115.352;2022-12-17T16:26:12;6.50;;;1.10;;
76393;SDS011;65216;51.090;-115.352;2022-12-17T16:28:39;9.40;;;1.00;;
76393;SDS011;65216;51.090;-115.352;2022-12-17T16:31:12;7.10;;;1.00;;
76393;SDS011;65216;51.090;-115.352;2022-12-17T16:33:42;6.40;;;0.80;;
76393;SDS011;65216;51.090;-115.352;2022-12-17T16:36:15;3.80;;;0.90;;
76393;SDS011;65216;51.090;-115.352;2022-12-17T16:38:52;8.70;;;1.10;;
76393;SDS011;65216;51.090;-115.352;2022-12-17T16:41:20;5.50;;;1.00;;
76393;SDS011;65216;51.090;-115.352;2022-12-17T16:43:53;9.80;;;1.00;;
76393;SDS011;65216;51.090;-115.352;2022-12-17T16:46:31;5.70;;;0.90;;
76393;SDS011;65216;51.090;-115.352;2022-12-17T16:49:06;7.10;;;1.00;;
76393;SDS011;65216;51.090;-115.352;2022-12-17T16:51:36;6.30;;;0.90;;
76393;SDS011;65216;51.090;-115.352;2022-12-17T16:54:09;8.10;;;1.10;;
76393;SDS011;65216;51.090;-115.352;2022-12-17T16:56:41;4.90;;;1.10;;
76393;SDS011;65216;51.090;-115.352;2022-12-17T16:59:11;14.50;;;1.40;;
76393;SDS011;65216;51.090;-115.352;2022-12-17T17:01:46;10.20;;;1.10;;
76393;SDS011;65216;51.090;-115.352;2022-12-17T17:04:17;8.20;;;1.10;;
76393;SDS011;65216;51.090;-115.352;2022-12-17T17:06:54;5.60;;;1.10;;
76393;SDS011;65216;51.090;-115.352;2022-12-17T17:09:23;5.40;;;0.80;;
76393;SDS011;65216;51.090;-115.352;2022-12-17T17:11:54;7.10;;;0.80;;
76393;SDS011;65216;51.090;-115.352;2022-12-17T17:14:25;6.20;;;1.00;;
76393;SDS011;65216;51.090;-115.352;2022-12-17T17:16:55;12.10;;;1.20;;
76393;SDS011;65216;51.090;-115.352;2022-12-17T17:19:23;13.30;;;1.30;;
76393;SDS011;65216;51.090;-115.352;2022-12-17T17:21:52;8.80;;;1.30;;
76393;SDS011;65216;51.090;-115.352;2022-12-17T17:24:21;9.30;;;1.20;;
76393;SDS011;65216;51.090;-115.352;2022-12-17T17:26:52;8.40;;;1.10;;
76393;SDS011;65216;51.090;-115.352;2022-12-17T17:29:23;7.50;;;1.20;;
76393;SDS011;65216;51.090;-115.352;2022-12-17T17:31:50;7.00;;;1.30;;